Time;durP1;ratioP1;P1;durP2;ratioP2;P2;SDS_P1;SDS_P2;PMS_P1;PMS_P2;Temp;Humidity;BMP_temperature;BMP_pressure;BME280_temperature;BME280_humidity;BME280_pressure;Samples;Min_cycle;Max_cycle;Signal;HPM_P1;HPM_P2
2023/07/12 00:01:11;;;;;;;20.20;9.50;;;;;;;;;;5051245;28;20032;-81
2023/07/12 00:03:38;;;;;;;17.85;10.18;;;;;;;;;;5052955;28;20107;-80
2023/07/12 00:06:09;;;;;;;22.75;9.65;;;;;;;;;;5051446;28;20391;-80
2023/07/12 00:08:35;;;;;;;;;;;;;;;;;;5051734;28;20017;-80
2023/07/12 00:11:01;;;;;;;16.92;9.48;;;;;;;;;;5052435;28;19915;-80
2023/07/12 00:13:27;;;;;;;20.98;9.65;;;;;;;;;;5051421;28;20028;-81
2023/07/12 00:15:55;;;;;;;19.30;9.52;;;;;;;;;;5051282;28;20021;-80
2023/07/12 00:18:23;;;;;;;18.20;10.02;;;;;;;;;;5052545;28;20490;-80
2023/07/12 00:20:50;;;;;;;15.30;9.45;;;;;;;;;;5050507;28;20041;-80
2023/07/12 00:23:17;;;;;;;17.40;9.93;;;;;;;;;;5052573;28;20051;-80
2023/07/12 00:25:44;;;;;;;18.80;9.63;;;;;;;;;;5052604;28;20021;-80
2023/07/12 00:28:16;;;;;;;17.02;9.98;;;;;;;;;;5049561;28;20013;-80
2023/07/12 00:30:42;;;;;;;15.32;10.35;;;;;;;;;;5052780;28;20024;-80
2023/07/12 00:33:09;;;;;;;20.05;9.63;;;;;;;;;;5051147;28;20013;-79
2023/07/12 00:35:35;;;;;;;16.20;9.23;;;;;;;;;;5051842;28;20071;-80
2023/07/12 00:38:02;;;;;;;16.88;9.50;;;;;;;;;;5051892;28;20482;-80
2023/07/12 00:40:31;;;;;;;14.25;9.02;;;;;;;;;;5052271;28;20104;-80
2023/07/12 00:43:05;;;;;;;18.25;11.23;;;;;;;;;;5053391;28;20031;-80
2023/07/12 00:45:33;;;;;;;15.65;9.70;;;;;;;;;;5055581;28;20024;-80
2023/07/12 00:47:59;;;;;;;17.52;9.45;;;;;;;;;;5055108;28;20392;-80
2023/07/12 00:50:26;;;;;;;17.58;9.70;;;;;;;;;;5055407;28;20027;-79
2023/07/12 00:52:52;;;;;;;15.00;9.48;;;;;;;;;;5055447;28;20437;-80
2023/07/12 00:55:37;;;;;;;20.55;9.60;;;;;;;;;;5055793;28;20017;-80
2023/07/12 00:58:03;;;;;;;13.45;9.38;;;;;;;;;;5055489;28;20040;-79
2023/07/12 01:00:29;;;;;;;16.48;10.13;;;;;;;;;;5055462;28;20025;-80
2023/07/12 01:02:57;;;;;;;19.60;10.93;;;;;;;;;;5054096;28;20021;-80
2023/07/12 01:05:24;;;;;;;20.95;10.27;;;;;;;;;;5053268;28;20366;-80
2023/07/12 01:07:50;;;;;;;17.05;10.25;;;;;;;;;;5053939;28;20481;-80
2023/07/12 01:10:16;;;;;;;21.67;11.23;;;;;;;;;;5054189;28;20050;-79
2023/07/12 01:12:42;;;;;;;20.08;11.57;;;;;;;;;;5055676;28;20029;-80
2023/07/12 01:15:09;;;;;;;21.58;10.73;;;;;;;;;;5055179;28;20017;-80
2023/07/12 01:17:35;;;;;;;22.30;11.50;;;;;;;;;;5054790;28;20021;-80
2023/07/12 01:20:01;;;;;;;23.10;11.27;;;;;;;;;;5055109;28;20077;-80
2023/07/12 01:22:27;;;;;;;19.67;11.35;;;;;;;;;;5054669;28;20017;-80
2023/07/12 01:24:54;;;;;;;19.77;11.50;;;;;;;;;;5054282;28;20013;-79
2023/07/12 01:27:23;;;;;;;20.67;11.38;;;;;;;;;;5053806;28;20013;-80
2023/07/12 01:29:50;;;;;;;19.05;10.73;;;;;;;;;;5055162;28;20021;-80
2023/07/12 01:32:16;;;;;;;27.30;12.80;;;;;;;;;;5053610;28;20115;-80
2023/07/12 01:34:43;;;;;;;19.77;10.13;;;;;;;;;;5054784;28;20375;-80
2023/07/12 01:37:09;;;;;;;19.88;10.68;;;;;;;;;;5054715;28;20050;-80
2023/07/12 01:39:35;;;;;;;21.17;10.80;;;;;;;;;;5053530;28;20112;-79
2023/07/12 01:42:02;;;;;;;18.35;10.90;;;;;;;;;;5053532;28;20029;-81
2023/07/12 01:44:28;;;;;;;17.17;10.40;;;;;;;;;;5055134;28;20071;-79
2023/07/12 01:46:55;;;;;;;22.23;11.23;;;;;;;;;;5053499;28;20013;-80
2023/07/12 01:49:21;;;;;;;17.95;10.32;;;;;;;;;;5054647;28;20021;-80
2023/07/12 01:51:47;;;;;;;15.68;9.88;;;;;;;;;;5054282;28;20692;-81
2023/07/12 01:54:13;;;;;;;23.73;11.48;;;;;;;;;;5054619;28;20363;-80
2023/07/12 01:56:39;;;;;;;17.27;9.93;;;;;;;;;;5054530;28;20020;-80
2023/07/12 01:59:06;;;;;;;15.82;10.63;;;;;;;;;;5054452;28;20033;-80
2023/07/12 02:01:32;;;;;;;18.90;11.23;;;;;;;;;;5054501;28;20025;-80
2023/07/12 02:03:58;;;;;;;24.25;11.02;;;;;;;;;;5053330;28;20021;-80
2023/07/12 02:06:24;;;;;;;24.80;11.35;;;;;;;;;;5054710;28;20104;-80
2023/07/12 02:08:50;;;;;;;15.93;10.68;;;;;;;;;;5054529;28;20010;-80
2023/07/12 02:11:16;;;;;;;19.85;11.57;;;;;;;;;;5054957;28;20017;-80
2023/07/12 02:13:42;;;;;;;16.77;10.15;;;;;;;;;;5053389;28;20025;-80
2023/07/12 02:16:09;;;;;;;19.00;11.27;;;;;;;;;;5053103;28;20070;-80
2023/07/12 02:18:35;;;;;;;21.75;10.07;;;;;;;;;;5054614;28;20123;-80
2023/07/12 02:21:01;;;;;;;16.15;9.77;;;;;;;;;;5053104;28;20024;-80
2023/07/12 02:23:27;;;;;;;15.40;9.43;;;;;;;;;;5054934;28;20086;-80
2023/07/12 02:25:53;;;;;;;25.02;11.27;;;;;;;;;;5054515;28;20048;-80
2023/07/12 02:28:19;;;;;;;18.02;9.70;;;;;;;;;;5053099;28;20017;-80
2023/07/12 02:30:46;;;;;;;14.57;10.07;;;;;;;;;;5053172;28;20029;-80
2023/07/12 02:33:12;;;;;;;23.75;10.35;;;;;;;;;;5053236;28;20025;-80
2023/07/12 02:35:40;;;;;;;19.67;10.35;;;;;;;;;;5052267;28;20024;-80
2023/07/12 02:38:06;;;;;;;20.63;10.65;;;;;;;;;;5053712;28;20021;-80
2023/07/12 02:40:32;;;;;;;13.55;9.48;;;;;;;;;;5053472;28;20028;-80
2023/07/12 02:42:58;;;;;;;15.10;9.90;;;;;;;;;;5053922;28;20021;-80
2023/07/12 02:45:24;;;;;;;34.17;10.05;;;;;;;;;;5052984;28;20383;-80
2023/07/12 02:47:51;;;;;;;14.43;9.57;;;;;;;;;;5053513;28;20055;-80
2023/07/12 02:50:17;;;;;;;19.45;10.07;;;;;;;;;;5052658;28;20454;-80
2023/07/12 02:52:44;;;;;;;15.10;10.00;;;;;;;;;;5052282;28;20517;-81
2023/07/12 02:55:10;;;;;;;17.33;9.35;;;;;;;;;;5053331;28;20020;-80
2023/07/12 02:57:37;;;;;;;15.23;9.85;;;;;;;;;;5053295;28;20025;-80
2023/07/12 03:00:04;;;;;;;20.23;9.38;;;;;;;;;;5053514;28;20479;-80
2023/07/12 03:02:30;;;;;;;15.93;10.05;;;;;;;;;;5051926;28;20024;-80
2023/07/12 03:04:56;;;;;;;19.65;10.63;;;;;;;;;;5052769;28;20017;-80
2023/07/12 03:07:23;;;;;;;19.63;9.48;;;;;;;;;;5052436;28;20421;-79
2023/07/12 03:09:49;;;;;;;19.58;10.40;;;;;;;;;;5052870;28;20524;-79
2023/07/12 03:12:15;;;;;;;17.73;10.25;;;;;;;;;;5053626;28;20029;-80
2023/07/12 03:14:41;;;;;;;16.45;10.07;;;;;;;;;;5051607;28;20025;-79
2023/07/12 03:17:07;;;;;;;15.88;9.85;;;;;;;;;;5052649;28;20013;-79
2023/07/12 03:19:35;;;;;;;17.30;11.43;;;23.10;99.90;;;;;;5053035;28;20040;-80
2023/07/12 03:22:01;;;;;;;20.70;11.30;;;23.00;99.90;;;;;;5051934;28;20029;-79
2023/07/12 03:24:26;;;;;;;16.92;10.45;;;22.90;99.90;;;;;;5053109;28;20021;-80
2023/07/12 03:26:52;;;;;;;18.88;10.38;;;22.90;99.90;;;;;;5052557;28;20025;-80
2023/07/12 03:29:18;;;;;;;20.02;11.15;;;22.90;99.90;;;;;;5054089;28;20028;-80
2023/07/12 03:31:44;;;;;;;19.17;10.40;;;22.80;99.90;;;;;;5052853;28;20029;-80
2023/07/12 03:34:10;;;;;;;17.52;10.40;;;22.90;99.90;;;;;;5053178;28;20437;-80
2023/07/12 03:36:37;;;;;;;17.85;10.35;;;22.90;99.90;;;;;;5053114;28;20100;-80
2023/07/12 03:39:03;;;;;;;20.92;10.35;;;22.90;99.90;;;;;;5052275;28;20032;-80
2023/07/12 03:41:29;;;;;;;18.20;9.88;;;22.90;99.90;;;;;;5052239;28;20025;-81
2023/07/12 03:43:54;;;;;;;16.17;10.05;;;22.90;99.90;;;;;;5053165;28;20032;-80
2023/07/12 03:46:20;;;;;;;16.73;9.68;;;23.00;99.90;;;;;;5052235;28;20056;-80
2023/07/12 03:48:46;;;;;;;19.33;9.82;;;23.00;99.90;;;;;;5053455;28;20021;-80
2023/07/12 03:51:14;;;;;;;17.83;10.02;;;23.00;99.90;;;;;;5053249;28;20078;-80
2023/07/12 03:53:40;;;;;;;16.98;9.32;;;23.00;99.90;;;;;;5053382;28;20425;-80
2023/07/12 03:56:06;;;;;;;13.75;9.50;;;23.10;99.90;;;;;;5052178;28;20029;-79
2023/07/12 03:58:34;;;;;;;14.15;8.77;;;23.10;99.90;;;;;;5053040;28;20025;-80
2023/07/12 04:01:06;;;;;;;15.85;9.82;;;23.10;99.90;;;;;;5053180;28;20033;-80
2023/07/12 04:03:33;;;;;;;17.13;11.15;;;23.10;99.90;;;;;;5053475;28;20035;-80
2023/07/12 04:05:59;;;;;;;20.35;10.93;;;23.10;99.90;;;;;;5052640;28;20025;-80
2023/07/12 04:08:24;;;;;;;19.88;11.40;;;23.10;99.90;;;;;;5052334;28;20513;-80
2023/07/12 04:10:51;;;;;;;24.98;10.52;;;23.00;99.90;;;;;;5050261;28;20029;-79
2023/07/12 04:13:17;;;;;;;17.88;10.45;;;23.00;99.90;;;;;;5052227;28;20029;-81
2023/07/12 04:15:43;;;;;;;17.63;11.30;;;23.00;99.90;;;;;;5051148;28;20025;-80
2023/07/12 04:18:09;;;;;;;23.45;11.30;;;23.00;99.90;;;;;;5053849;28;20045;-80
2023/07/12 04:20:38;;;;;;;19.20;10.98;;;23.00;99.90;;;;;;5055988;28;20037;-81
2023/07/12 04:23:04;;;;;;;18.33;10.25;;;23.00;99.90;;;;;;5055886;28;20371;-80
2023/07/12 04:25:30;;;;;;;23.05;13.32;;;23.00;99.90;;;;;;5056143;28;20029;-81
2023/07/12 04:27:56;;;;;;;32.83;14.18;;;22.90;99.90;;;;;;5055156;28;20360;-80
2023/07/12 04:30:22;;;;;;;47.85;14.77;;;22.80;99.90;;;;;;5055994;28;20099;-80
2023/07/12 04:32:47;;;;;;;41.00;13.80;;;22.70;99.90;;;;;;5054791;28;20037;-79
2023/07/12 04:35:14;;;;;;;29.98;15.23;;;22.60;99.90;;;;;;5056236;28;20124;-80
2023/07/12 04:37:45;;;;;;;22.90;13.82;;;22.60;99.90;;;;;;5054727;28;20017;-81
2023/07/12 04:40:12;;;;;;;21.80;13.45;;;22.60;99.90;;;;;;5055683;28;20108;-79
2023/07/12 04:42:37;;;;;;;23.40;13.38;;;22.60;99.90;;;;;;5054596;28;20040;-81
2023/07/12 04:45:04;;;;;;;24.60;13.02;;;22.70;99.90;;;;;;5086767;28;20025;-80
2023/07/12 04:47:30;;;;;;;27.17;14.10;;;22.70;99.90;;;;;;5055542;28;20032;-79
2023/07/12 04:49:56;;;;;;;20.92;13.60;;;22.70;99.90;;;;;;5055323;28;20037;-79
2023/07/12 04:52:22;;;;;;;22.05;12.52;;;22.80;99.90;;;;;;5055791;28;20070;-79
2023/07/12 04:54:48;;;;;;;20.92;12.00;;;22.90;99.90;;;;;;5056402;28;20025;-79
2023/07/12 04:57:13;;;;;;;28.23;12.82;;;22.90;99.90;;;;;;5054607;28;20043;-80
2023/07/12 04:59:40;;;;;;;22.95;11.88;;;;;;;;;;5055023;28;20064;-79
2023/07/12 05:02:06;;;;;;;25.33;12.70;;;23.20;99.90;;;;;;5055833;28;20100;-79
2023/07/12 05:04:32;;;;;;;22.38;12.30;;;23.30;99.90;;;;;;5054671;28;20116;-80
2023/07/12 05:06:57;;;;;;;22.48;11.88;;;23.40;99.90;;;;;;5055828;28;20025;-79
2023/07/12 05:09:23;;;;;;;19.38;11.52;;;;;;;;;;5055751;28;20029;-80
2023/07/12 05:11:51;;;;;;;23.73;11.90;;;;;;;;;;5056033;28;20017;-80
2023/07/12 05:14:17;;;;;;;21.15;12.02;;;;;;;;;;5054874;28;20013;-79
2023/07/12 05:16:43;;;;;;;23.40;11.80;;;;;;;;;;5055774;28;20028;-80
2023/07/12 05:19:10;;;;;;;24.48;11.90;;;;;;;;;;5055313;28;20041;-80
2023/07/12 05:21:36;;;;;;;21.67;12.25;;;;;;;;;;5053720;28;20021;-79
2023/07/12 05:24:02;;;;;;;24.08;12.68;;;;;;;;;;5054529;28;20532;-78
2023/07/12 05:26:28;;;;;;;22.45;11.00;;;;;;;;;;5055608;28;20017;-78
2023/07/12 05:28:54;;;;;;;20.98;12.38;;;;;;;;;;5055177;28;20029;-78
2023/07/12 05:31:20;;;;;;;22.45;12.02;;;;;;;;;;5055775;28;20047;-78
2023/07/12 05:33:47;;;;;;;26.58;12.25;;;;;;;;;;5055677;28;20464;-77
2023/07/12 05:36:14;;;;;;;22.85;13.32;;;;;;;;;;5055449;28;20123;-77
2023/07/12 05:38:40;;;;;;;22.02;12.43;;;;;;;;;;5054167;28;20070;-77
2023/07/12 05:41:06;;;;;;;17.50;12.13;;;;;;;;;;5054235;28;20025;-77
2023/07/12 05:43:35;;;;;;;22.77;12.07;;;;;;;;;;5054030;28;20029;-78
2023/07/12 05:46:03;;;;;;;18.48;11.20;;;;;;;;;;5053950;28;20017;-77
2023/07/12 05:48:29;;;;;;;25.42;11.80;;;;;;;;;;5054133;28;20029;-78
2023/07/12 05:50:57;;;;;;;20.08;10.40;;;;;;;;;;5053830;28;20021;-78
2023/07/12 05:53:23;;;;;;;22.33;10.48;;;;;;;;;;5055322;28;20017;-77
2023/07/12 05:55:54;;;;;;;18.42;11.10;;;;;;;;;;5055578;28;20479;-78
2023/07/12 05:58:20;;;;;;;20.85;10.90;;;;;;;;;;5053820;28;20025;-78
2023/07/12 06:00:47;;;;;;;20.13;11.15;;;;;;;;;;5054955;28;20035;-78
2023/07/12 06:03:13;;;;;;;18.95;10.27;;;;;;;;;;5053805;28;20070;-78
2023/07/12 06:05:44;;;;;;;18.48;10.73;;;;;;;;;;5054525;28;20036;-77
2023/07/12 06:08:10;;;;;;;19.05;11.20;;;;;;;;;;5054867;28;20020;-77
2023/07/12 06:10:36;;;;;;;18.13;11.20;;;;;;;;;;5053477;28;20031;-77
2023/07/12 06:13:03;;;;;;;20.17;11.82;;;;;;;;;;5055024;28;20082;-78
2023/07/12 06:15:29;;;;;;;21.35;11.73;;;;;;;;;;5054998;28;20469;-77
2023/07/12 06:17:55;;;;;;;19.35;10.85;;;;;;;;;;5054673;28;20052;-78
2023/07/12 06:20:21;;;;;;;20.15;9.65;;;;;;;;;;5054797;28;20103;-78
2023/07/12 06:22:47;;;;;;;22.05;10.98;;;;;;;;;;5054934;28;20029;-78
2023/07/12 06:25:13;;;;;;;16.45;10.30;;;;;;;;;;5054507;28;20055;-78
2023/07/12 06:27:40;;;;;;;21.23;12.43;;;;;;;;;;5053227;28;20368;-78
2023/07/12 06:30:06;;;;;;;22.40;11.07;;;;;;;;;;5053470;28;20099;-78
2023/07/12 06:32:32;;;;;;;22.88;11.45;;;;;;;;;;5050031;28;20033;-78
2023/07/12 06:34:58;;;;;;;23.38;10.88;;;;;;;;;;5050227;28;20021;-77
2023/07/12 06:37:24;;;;;;;21.92;11.07;;;;;;;;;;5053296;28;20071;-79
2023/07/12 06:39:50;;;;;;;20.33;9.75;;;;;;;;;;5052599;28;20033;-79
2023/07/12 06:42:16;;;;;;;17.08;10.25;;;;;;;;;;5053892;28;20029;-78
2023/07/12 06:44:43;;;;;;;18.80;9.98;;;;;;;;;;5054172;28;20098;-79
2023/07/12 06:47:09;;;;;;;14.88;8.88;;;;;;;;;;5054289;28;20040;-78
2023/07/12 06:49:35;;;;;;;18.48;9.65;;;;;;;;;;5054001;28;20358;-78
2023/07/12 06:52:02;;;;;;;19.58;7.65;;;;;;;;;;5054225;28;20021;-78
2023/07/12 06:54:28;;;;;;;13.48;7.22;;;;;;;;;;5053730;28;20021;-78
2023/07/12 06:56:55;;;;;;;15.40;7.47;;;;;;;;;;5052783;28;20344;-79
2023/07/12 06:59:21;;;;;;;11.77;6.75;;;;;;;;;;5052912;28;20467;-80
2023/07/12 07:01:47;;;;;;;14.88;6.95;;;;;;;;;;5053867;28;20028;-78
2023/07/12 07:04:13;;;;;;;13.30;6.32;;;;;;;;;;5053955;28;20013;-80
2023/07/12 07:06:40;;;;;;;12.73;5.50;;;;;;;;;;5052464;28;20019;-79
2023/07/12 07:09:06;;;;;;;10.63;5.22;;;;;;;;;;5052751;28;20024;-78
2023/07/12 07:11:32;;;;;;;17.15;6.07;;;;;;;;;;5054190;28;20027;-78
2023/07/12 07:13:58;;;;;;;9.60;5.43;;;;;;;;;;5053909;28;20032;-78
2023/07/12 07:16:24;;;;;;;11.30;5.60;;;;;;;;;;5052517;28;20410;-78
2023/07/12 07:18:51;;;;;;;9.18;4.82;;;;;;;;;;5054045;28;20120;-77
2023/07/12 07:21:17;;;;;;;11.73;5.18;;;;;;;;;;5053478;28;20075;-79
2023/07/12 07:23:44;;;;;;;8.25;4.70;;;;;;;;;;5052408;28;20033;-77
2023/07/12 07:26:11;;;;;;;11.23;5.18;;;;;;;;;;5053500;28;20017;-77
2023/07/12 07:28:41;;;;;;;10.70;4.80;;;;;;;;;;5052325;28;20017;-78
2023/07/12 07:31:07;;;;;;;6.90;4.78;;;;;;;;;;5053622;28;20047;-78
2023/07/12 07:33:37;;;;;;;8.57;4.45;;;;;;;;;;5053726;28;20087;-79
2023/07/12 07:36:05;;;;;;;8.23;4.05;;;;;;;;;;5052150;28;20021;-79
2023/07/12 07:38:31;;;;;;;10.93;3.58;;;;;;;;;;5053525;28;20025;-78
2023/07/12 07:40:57;;;;;;;8.07;4.20;;;;;;;;;;5053263;28;20367;-78
2023/07/12 07:43:23;;;;;;;6.95;4.07;;;;;;;;;;5051969;28;20040;-77
2023/07/12 07:45:49;;;;;;;7.93;4.45;;;;;;;;;;5052086;28;20111;-79
2023/07/12 07:48:15;;;;;;;10.20;4.03;;;;;;;;;;5052327;28;20025;-80
2023/07/12 07:50:42;;;;;;;10.10;4.00;;;;;;;;;;5052030;28;20021;-80
2023/07/12 07:53:11;;;;;;;8.02;4.28;;;;;;;;;;5056225;28;20017;-78
2023/07/12 07:55:41;;;;;;;6.68;3.58;;;;;;;;;;5057685;28;20474;-78
2023/07/12 07:58:09;;;;;;;7.53;4.57;;;;;;;;;;5057590;28;20021;-79
2023/07/12 08:00:36;;;;;;;10.05;3.83;;;;;;;;;;5055823;28;20375;-79
2023/07/12 08:03:03;;;;;;;9.23;3.45;;;;;;;;;;5057151;28;20183;-79
2023/07/12 08:05:30;;;;;;;10.80;3.70;;;;;;;;;;5056776;28;20352;-78
2023/07/12 08:07:56;;;;;;;10.13;4.13;;;;;;;;;;5057145;28;20013;-78
2023/07/12 08:10:22;;;;;;;8.43;3.40;;;;;;;;;;5056845;28;20025;-80
2023/07/12 08:12:49;;;;;;;10.88;3.88;;;;;;;;;;5057131;28;20025;-79
2023/07/12 08:15:15;;;;;;;7.13;3.72;;;;;;;;;;5057393;28;20363;-78
2023/07/12 08:17:42;;;;;;;9.15;4.13;;;;;;;;;;5055456;28;20451;-79
2023/07/12 08:20:09;;;;;;;6.65;3.28;;;;;;;;;;5055844;28;20036;-79
2023/07/12 08:22:35;;;;;;;9.65;3.60;;;;;;;;;;5055694;28;20041;-79
2023/07/12 08:25:01;;;;;;;9.32;3.63;;;;;;;;;;5055501;28;20013;-79
2023/07/12 08:27:30;;;;;;;7.05;3.80;;;;;;;;;;5056586;28;20021;-80
2023/07/12 08:29:58;;;;;;;9.15;4.10;;;;;;;;;;5055585;28;20036;-80
2023/07/12 08:32:27;;;;;;;7.50;3.83;;;;;;;;;;5056718;28;20025;-80
2023/07/12 08:34:54;;;;;;;10.30;3.58;;;;;;;;;;5055440;28;20029;-79
2023/07/12 08:37:20;;;;;;;11.57;3.35;;;;;;;;;;5055497;28;20074;-80
2023/07/12 08:39:46;;;;;;;11.63;3.80;;;;;;;;;;5055994;28;20367;-79
2023/07/12 08:42:15;;;;;;;12.32;3.33;;;;;;;;;;5054401;28;20035;-79
2023/07/12 08:44:41;;;;;;;9.18;3.90;;;;;;;;;;5054807;28;20028;-79
2023/07/12 08:47:11;;;;;;;10.52;3.90;;;;;;;;;;5056551;28;20020;-80
2023/07/12 08:49:37;;;;;;;6.53;3.25;;;;;;;;;;5056641;28;20020;-79
2023/07/12 08:52:05;;;;;;;16.33;4.80;;;;;;;;;;5056150;28;20517;-79
2023/07/12 08:54:35;;;;;;;10.55;3.78;;;;;;;;;;5056263;28;20048;-80
2023/07/12 08:57:04;;;;;;;10.30;3.85;;;;;;;;;;5055077;28;20021;-78
2023/07/12 08:59:30;;;;;;;15.27;4.18;;;;;;;;;;5056336;28;20025;-78
2023/07/12 09:01:59;;;;;;;11.38;3.92;;;;;;;;;;5054907;28;20035;-80
2023/07/12 09:04:25;;;;;;;9.35;3.75;;;;;;;;;;5055438;28;20013;-80
2023/07/12 09:06:54;;;;;;;12.48;3.38;;;;;;;;;;5056068;28;20024;-80
2023/07/12 09:09:20;;;;;;;10.95;3.90;;;;;;;;;;5054864;28;20033;-79
2023/07/12 09:11:46;;;;;;;16.80;4.18;;;;;;;;;;5055803;28;20017;-79
2023/07/12 09:14:20;;;;;;;14.55;4.47;;;;;;;;;;5055742;28;20375;-80
2023/07/12 09:16:48;;;;;;;15.32;4.15;;;;;;;;;;5055909;28;20090;-79
2023/07/12 09:19:14;;;;;;;11.35;4.22;;;;;;;;;;5055444;28;20053;-78
2023/07/12 09:21:40;;;;;;;11.60;4.25;;;;;;;;;;5054392;28;20025;-79
2023/07/12 09:24:11;;;;;;;13.85;4.20;;;;;;;;;;5055770;28;20474;-79
2023/07/12 09:26:37;;;;;;;9.65;4.20;;;;;;;;;;5055174;28;20013;-80
2023/07/12 09:29:03;;;;;;;16.80;4.50;;;;;;;;;;5054269;28;20029;-79
2023/07/12 09:31:30;;;;;;;13.20;4.18;;;;;;;;;;5055784;28;20017;-78
2023/07/12 09:33:58;;;;;;;11.38;4.22;;;;;;;;;;5054211;28;20025;-79
2023/07/12 09:36:24;;;;;;;11.70;4.15;;;;;;;;;;5055290;28;20023;-80
2023/07/12 09:38:51;;;;;;;14.70;5.25;;;;;;;;;;5055297;28;20033;-78
2023/07/12 09:41:18;;;;;;;18.35;5.28;;;;;;;;;;5055325;28;20143;-78
2023/07/12 09:43:48;;;;;;;9.82;3.55;;;;;;;;;;5052721;28;20128;-80
2023/07/12 09:46:22;;;;;;;14.80;3.88;;;;;;;;;;5054208;28;20458;-78
2023/07/12 09:48:48;;;;;;;11.27;4.15;;;;;;;;;;5053413;28;20367;-79
2023/07/12 09:51:14;;;;;;;10.38;4.38;;;;;;;;;;5054410;28;20025;-79
2023/07/12 09:53:40;;;;;;;12.25;3.80;;;;;;;;;;5053461;28;20021;-79
2023/07/12 09:56:29;;;;;;;6.22;3.55;;;;;;;;;;5053955;28;20032;-79
2023/07/12 09:58:58;;;;;;;16.75;4.10;;;;;;;;;;5053264;28;20485;-80
2023/07/12 10:01:35;;;;;;;8.45;4.13;;;;;;;;;;5054366;28;20467;-79
2023/07/12 10:04:08;;;;;;;9.95;4.15;;;;;;;;;;5053241;28;20025;-79
2023/07/12 10:06:52;;;;;;;8.07;4.22;;;;;;;;;;5053350;28;20025;-80
2023/07/12 10:09:26;;;;;;;14.02;4.47;;;;;;;;;;5054181;28;20075;-81
2023/07/12 10:12:08;;;;;;;11.57;3.78;;;;;;;;;;5054419;28;20497;-79
2023/07/12 10:14:36;;;;;;;14.88;4.63;;;;;;;;;;5053097;28;20052;-80
2023/07/12 10:17:03;;;;;;;11.77;4.15;;;;;;;;;;5053858;28;20067;-81
2023/07/12 10:19:35;;;;;;;16.27;4.32;;;;;;;;;;5054445;28;20048;-80
2023/07/12 10:22:02;;;;;;;9.73;3.75;;;;;;;;;;5054003;28;20025;-79
2023/07/12 10:24:35;;;;;;;13.05;3.63;;;;;;;;;;5052788;28;20024;-79
2023/07/12 10:27:04;;;;;;;13.38;4.38;;;;;;;;;;5052468;28;20021;-80
2023/07/12 10:29:53;;;;;;;11.90;3.53;;;;;;;;;;5053150;28;20032;-79
2023/07/12 10:32:24;;;;;;;15.82;4.45;;;;;;;;;;5049286;28;20047;-78
2023/07/12 10:34:50;;;;;;;;;;;;;;;;;;5054407;28;20467;-81
2023/07/12 10:37:30;;;;;;;11.85;4.13;;;;;;;;;;5053257;28;19909;-79
2023/07/12 10:39:56;;;;;;;11.63;3.65;;;;;;;;;;5053571;28;20071;-79
2023/07/12 10:42:22;;;;;;;14.85;4.15;;;;;;;;;;5054124;28;20017;-78
2023/07/12 10:44:52;;;;;;;10.25;4.18;;;;;;;;;;5052382;28;20053;-80
2023/07/12 10:47:18;;;;;;;10.15;3.65;;;;;;;;;;5053075;28;20501;-80
2023/07/12 10:49:52;;;;;;;9.30;3.83;;;;;;;;;;5053620;28;20029;-79
2023/07/12 10:52:54;;;;;;;12.15;4.10;;;;;;;;;;5053172;28;20021;-79
2023/07/12 10:55:36;;;;;;;11.73;3.95;;;;;;;;;;5031163;28;20483;-79
2023/07/12 10:58:16;;;;;;;10.75;4.20;;;;;;;;;;5030667;28;20064;-79
2023/07/12 11:00:49;;;;;;;18.13;4.72;;;;;;;;;;5014479;28;20076;-80
2023/07/12 11:03:18;;;;;;;9.65;3.67;;;;;;;;;;5030895;28;20435;-79
2023/07/12 11:05:44;;;;;;;10.48;3.63;;;;;;;;;;5030810;28;20387;-79
2023/07/12 11:08:29;;;;;;;7.88;4.10;;;;;;;;;;5028433;28;20033;-81
2023/07/12 11:10:56;;;;;;;11.85;3.53;;;;;;;;;;5026003;28;20045;-78
2023/07/12 11:13:22;;;;;;;12.85;4.45;;;;;;;;;;5029943;28;20200;-80
2023/07/12 11:15:53;;;;;;;10.50;4.07;;;;;;;;;;5031051;28;20061;-80
2023/07/12 11:18:24;;;;;;;11.70;4.93;;;;;;;;;;5030494;28;20041;-80
2023/07/12 11:21:01;;;;;;;9.02;3.30;;;;;;;;;;5033835;28;20511;-79
2023/07/12 11:23:36;;;;;;;12.18;3.80;;;;;;;;;;5024571;28;20033;-80
2023/07/12 11:26:04;;;;;;;16.45;4.40;;;;;;;;;;5030037;28;20031;-79
2023/07/12 11:28:40;;;;;;;9.57;3.92;;;;;;;;;;5030862;28;20030;-80
2023/07/12 11:31:15;;;;;;;8.10;3.95;;;;;;;;;;5042920;28;20021;-79
2023/07/12 11:33:42;;;;;;;9.05;3.63;;;;;;;;;;5052901;28;20020;-78
2023/07/12 11:36:10;;;;;;;12.38;4.32;;;;;;;;;;5052453;28;20363;-79
2023/07/12 11:38:37;;;;;;;13.88;5.18;;;;;;;;;;5052663;28;20361;-80
2023/07/12 11:41:13;;;;;;;10.15;4.10;;;;;;;;;;5051723;28;20378;-79
2023/07/12 11:43:40;;;;;;;11.05;3.72;;;;;;;;;;5052816;28;20021;-80
2023/07/12 11:46:20;;;;;;;7.32;3.85;;;;;;;;;;5052617;28;20021;-80
2023/07/12 11:48:51;;;;;;;13.45;3.83;;;;;;;;;;5051389;28;20021;-80
2023/07/12 11:51:19;;;;;;;9.80;3.38;;;;;;;;;;5052231;28;20820;-79
2023/07/12 11:53:53;;;;;;;8.68;3.83;;;;;;;;;;5052777;28;20464;-81
2023/07/12 11:56:19;;;;;;;9.32;4.03;;;;;;;;;;5052903;28;20021;-81
2023/07/12 11:58:45;;;;;;;14.73;4.18;;;;;;;;;;5052668;28;20057;-80
2023/07/12 12:01:13;;;;;;;14.30;4.38;;;;;;;;;;5051959;28;20348;-79
2023/07/12 12:03:39;;;;;;;10.98;4.65;;;;;;;;;;5052660;28;20017;-79
2023/07/12 12:06:06;;;;;;;12.48;4.38;;;;;;;;;;5052257;28;20025;-79
2023/07/12 12:08:33;;;;;;;11.15;4.38;;;;;;;;;;5052488;28;20017;-80
2023/07/12 12:10:59;;;;;;;11.57;4.38;;;;;;;;;;5052058;28;20403;-80
2023/07/12 12:13:27;;;;;;;12.48;3.85;;;;;;;;;;5051496;28;20017;-80
2023/07/12 12:16:06;;;;;;;7.43;4.20;;;;;;;;;;5052289;28;20547;-80
2023/07/12 12:18:33;;;;;;;14.82;4.75;;;;;;;;;;5043585;28;20045;-80
2023/07/12 12:21:05;;;;;;;8.35;4.25;;;;;;;;;;5037077;28;20059;-80
2023/07/12 12:23:39;;;;;;;9.55;3.85;;;;;;;;;;5052423;28;20029;-80
2023/07/12 12:26:14;;;;;;;16.52;3.53;;;;;;;;;;5050859;28;20077;-80
2023/07/12 12:28:40;;;;;;;11.55;4.20;;;;;;;;;;5052335;28;20028;-81
2023/07/12 12:31:15;;;;;;;8.02;4.00;;;;;;;;;;5051799;28;20519;-79
2023/07/12 12:33:48;;;;;;;10.32;3.92;;;;;;;;;;5051201;28;20032;-80
2023/07/12 12:36:19;;;;;;;7.28;3.92;;;;;;;;;;5052038;28;20029;-78
2023/07/12 12:38:57;;;;;;;8.88;3.25;;;;;;;;;;5051759;28;20021;-80
2023/07/12 12:41:23;;;;;;;10.10;4.40;;;;;;;;;;5054676;28;20033;-79
2023/07/12 12:43:56;;;;;;;11.38;4.25;;;;;;;;;;5055960;28;20463;-80
2023/07/12 12:46:23;;;;;;;14.70;4.50;;;;;;;;;;5055948;28;20536;-79
2023/07/12 12:48:51;;;;;;;10.18;3.70;;;;;;;;;;5055987;28;20021;-78
2023/07/12 12:51:17;;;;;;;16.25;4.57;;;;;;;;;;5054132;28;20025;-79
2023/07/12 12:53:44;;;;;;;17.02;4.63;;;;;;;;;;5055916;28;20563;-78
2023/07/12 12:56:14;;;;;;;9.48;4.03;;;;;;;;;;5054373;28;20360;-78
2023/07/12 12:58:40;;;;;;;12.50;4.03;;;;;;;;;;5054332;28;20025;-77
2023/07/12 13:01:08;;;;;;;11.95;3.75;;;;;;;;;;5052886;28;20033;-77
2023/07/12 13:03:36;;;;;;;9.52;4.13;;;;;;;;;;5053115;28;20456;-79
2023/07/12 13:06:02;;;;;;;11.45;4.43;;;;;;;;;;5054720;28;20406;-78
2023/07/12 13:08:29;;;;;;;11.63;3.78;;;;;;;;;;5055566;28;20451;-78
2023/07/12 13:10:56;;;;;;;13.25;3.78;;;;;;;;;;5054715;28;20028;-78
2023/07/12 13:13:22;;;;;;;7.85;3.97;;;;;;;;;;5054581;28;20025;-78
2023/07/12 13:15:48;;;;;;;10.77;3.58;;;;;;;;;;5055300;28;20063;-79
2023/07/12 13:18:16;;;;;;;10.60;4.07;;;;;;;;;;5052844;28;20033;-81
2023/07/12 13:20:43;;;;;;;8.80;4.10;;;;;;;;;;5055208;28;20498;-80
2023/07/12 13:23:09;;;;;;;8.32;4.07;;;;;;;;;;5055406;28;20083;-79
2023/07/12 13:25:38;;;;;;;12.88;4.35;;;;;;;;;;5053691;28;20371;-79
2023/07/12 13:28:06;;;;;;;15.13;3.97;;;;;;;;;;5053126;28;20149;-78
2023/07/12 13:30:37;;;;;;;18.65;4.20;;;;;;;;;;5055398;28;20517;-78
2023/07/12 13:33:09;;;;;;;13.30;4.32;;;;;;;;;;5053947;28;20025;-79
2023/07/12 13:35:35;;;;;;;8.27;5.20;;;;;;;;;;5046895;28;20087;-78
2023/07/12 13:38:02;;;;;;;6.45;3.47;;;;;;;;;;5052543;28;20023;-79
2023/07/12 13:40:28;;;;;;;8.95;3.45;;;;;;;;;;5054604;28;20029;-78
2023/07/12 13:42:55;;;;;;;7.22;3.70;;;;;;;;;;5053543;28;20398;-78
2023/07/12 13:45:21;;;;;;;10.05;4.07;;;;;;;;;;5053151;28;20143;-79
2023/07/12 13:47:48;;;;;;;12.45;4.03;;;;;;;;;;5052778;28;20061;-79
2023/07/12 13:50:15;;;;;;;14.57;4.38;;;;;;;;;;5053195;28;20029;-78
2023/07/12 13:52:41;;;;;;;12.52;3.70;;;;;;;;;;5053755;28;20367;-78
2023/07/12 13:55:12;;;;;;;9.75;4.20;;;;;;;;;;5034623;28;20430;-78
2023/07/12 13:57:38;;;;;;;11.52;3.63;;;;;;;;;;5051751;28;20367;-78
2023/07/12 14:00:07;;;;;;;12.52;4.22;;;;;;;;;;5051848;28;20524;-78
2023/07/12 14:02:34;;;;;;;10.05;3.88;;;;;;;;;;5051155;28;20032;-79
2023/07/12 14:05:01;;;;;;;9.07;4.10;;;;;;;;;;5053056;28;20048;-78
2023/07/12 14:07:29;;;;;;;15.95;5.32;;;;;;;;;;5053962;28;20029;-78
2023/07/12 14:09:56;;;;;;;9.75;3.83;;;;;;;;;;5054139;28;20029;-79
2023/07/12 14:12:23;;;;;;;7.72;3.72;;;;;;;;;;5053452;28;20017;-79
2023/07/12 14:14:49;;;;;;;11.55;3.80;;;;;;;;;;5054131;28;20536;-78